sensor_id;sensor_type;location;lat;lon;timestamp;P1;durP1;ratioP1;P2;durP2;ratioP2
9007;SDS011;62813;51.424;6.762;2023-04-15T00:00:54;12.87;;;4.90;;
9007;SDS011;62813;51.424;6.762;2023-04-15T00:03:21;8.37;;;5.27;;
9007;SDS011;62813;51.424;6.762;2023-04-15T00:05:49;8.00;;;5.20;;
9007;SDS011;62813;51.424;6.762;2023-04-15T00:08:16;11.77;;;5.33;;
9007;SDS011;62813;51.424;6.762;2023-04-15T00:10:42;5.93;;;4.73;;
9007;SDS011;62813;51.424;6.762;2023-04-15T00:13:12;8.57;;;5.30;;
9007;SDS011;62813;51.424;6.762;2023-04-15T00:15:38;7.80;;;5.27;;
9007;SDS011;62813;51.424;6.762;2023-04-15T00:18:05;9.27;;;5.27;;
9007;SDS011;62813;51.424;6.762;2023-04-15T00:20:34;8.83;;;5.37;;
9007;SDS011;62813;51.424;6.762;2023-04-15T00:23:01;9.10;;;5.67;;
9007;SDS011;62813;51.424;6.762;2023-04-15T00:25:29;10.77;;;5.07;;
9007;SDS011;62813;51.424;6.762;2023-04-15T00:27:56;10.80;;;6.00;;
9007;SDS011;62813;51.424;6.762;2023-04-15T00:30:23;11.87;;;5.30;;
9007;SDS011;62813;51.424;6.762;2023-04-15T00:32:51;10.97;;;5.10;;
9007;SDS011;62813;51.424;6.762;2023-04-15T00:35:18;9.97;;;5.20;;
9007;SDS011;62813;51.424;6.762;2023-04-15T00:37:45;8.50;;;5.20;;
9007;SDS011;62813;51.424;6.762;2023-04-15T00:40:13;6.70;;;5.27;;
9007;SDS011;62813;51.424;6.762;2023-04-15T00:42:44;9.27;;;5.57;;
9007;SDS011;62813;51.424;6.762;2023-04-15T00:45:11;9.33;;;5.03;;
9007;SDS011;62813;51.424;6.762;2023-04-15T00:47:38;7.53;;;4.90;;
9007;SDS011;62813;51.424;6.762;2023-04-15T00:50:07;7.90;;;5.43;;
9007;SDS011;62813;51.424;6.762;2023-04-15T00:52:35;8.30;;;5.10;;
9007;SDS011;62813;51.424;6.762;2023-04-15T00:55:02;7.50;;;5.20;;
9007;SDS011;62813;51.424;6.762;2023-04-15T00:57:30;7.17;;;5.20;;
9007;SDS011;62813;51.424;6.762;2023-04-15T00:59:57;8.70;;;5.20;;
9007;SDS011;62813;51.424;6.762;2023-04-15T01:02:24;9.33;;;5.40;;
9007;SDS011;62813;51.424;6.762;2023-04-15T01:04:51;7.33;;;5.20;;
9007;SDS011;62813;51.424;6.762;2023-04-15T01:07:18;5.93;;;4.50;;
9007;SDS011;62813;51.424;6.762;2023-04-15T01:09:44;8.40;;;5.00;;
9007;SDS011;62813;51.424;6.762;2023-04-15T01:12:12;9.63;;;5.03;;
9007;SDS011;62813;51.424;6.762;2023-04-15T01:14:40;8.63;;;4.63;;
9007;SDS011;62813;51.424;6.762;2023-04-15T01:17:07;9.83;;;5.50;;
9007;SDS011;62813;51.424;6.762;2023-04-15T01:19:35;9.47;;;5.43;;
9007;SDS011;62813;51.424;6.762;2023-04-15T01:22:02;9.17;;;5.63;;
9007;SDS011;62813;51.424;6.762;2023-04-15T01:24:30;8.73;;;6.00;;
9007;SDS011;62813;51.424;6.762;2023-04-15T01:26:58;7.70;;;5.60;;
9007;SDS011;62813;51.424;6.762;2023-04-15T01:29:25;11.23;;;6.03;;
9007;SDS011;62813;51.424;6.762;2023-04-15T01:31:53;9.23;;;5.80;;
9007;SDS011;62813;51.424;6.762;2023-04-15T01:34:21;10.73;;;6.67;;
9007;SDS011;62813;51.424;6.762;2023-04-15T01:36:48;10.03;;;6.43;;
9007;SDS011;62813;51.424;6.762;2023-04-15T01:39:15;9.97;;;6.10;;
9007;SDS011;62813;51.424;6.762;2023-04-15T01:41:42;9.87;;;6.50;;
9007;SDS011;62813;51.424;6.762;2023-04-15T01:44:08;9.87;;;6.47;;
9007;SDS011;62813;51.424;6.762;2023-04-15T01:46:35;10.63;;;6.50;;
9007;SDS011;62813;51.424;6.762;2023-04-15T01:49:02;12.87;;;6.40;;
9007;SDS011;62813;51.424;6.762;2023-04-15T01:51:29;10.37;;;6.20;;
9007;SDS011;62813;51.424;6.762;2023-04-15T01:53:56;8.83;;;6.20;;
9007;SDS011;62813;51.424;6.762;2023-04-15T01:56:22;10.23;;;6.90;;
9007;SDS011;62813;51.424;6.762;2023-04-15T01:58:49;12.60;;;7.07;;
9007;SDS011;62813;51.424;6.762;2023-04-15T02:01:17;9.27;;;6.40;;
9007;SDS011;62813;51.424;6.762;2023-04-15T02:03:45;8.90;;;6.47;;
9007;SDS011;62813;51.424;6.762;2023-04-15T02:06:15;10.67;;;7.07;;
9007;SDS011;62813;51.424;6.762;2023-04-15T02:08:45;9.63;;;6.17;;
9007;SDS011;62813;51.424;6.762;2023-04-15T02:11:12;11.03;;;7.20;;
9007;SDS011;62813;51.424;6.762;2023-04-15T02:13:39;11.47;;;6.90;;
9007;SDS011;62813;51.424;6.762;2023-04-15T02:16:14;10.60;;;7.37;;
9007;SDS011;62813;51.424;6.762;2023-04-15T02:18:44;9.27;;;7.47;;
9007;SDS011;62813;51.424;6.762;2023-04-15T02:21:12;13.50;;;7.23;;
9007;SDS011;62813;51.424;6.762;2023-04-15T02:23:39;8.90;;;7.53;;
9007;SDS011;62813;51.424;6.762;2023-04-15T02:26:08;10.00;;;6.80;;
9007;SDS011;62813;51.424;6.762;2023-04-15T02:28:35;8.40;;;6.83;;
9007;SDS011;62813;51.424;6.762;2023-04-15T02:31:05;10.77;;;6.83;;
9007;SDS011;62813;51.424;6.762;2023-04-15T02:33:33;9.17;;;6.97;;
9007;SDS011;62813;51.424;6.762;2023-04-15T02:35:59;9.37;;;6.83;;
9007;SDS011;62813;51.424;6.762;2023-04-15T02:38:26;11.90;;;7.17;;
9007;SDS011;62813;51.424;6.762;2023-04-15T02:40:53;8.97;;;6.80;;
9007;SDS011;62813;51.424;6.762;2023-04-15T02:43:20;11.70;;;7.47;;
9007;SDS011;62813;51.424;6.762;2023-04-15T02:45:46;8.87;;;7.17;;
9007;SDS011;62813;51.424;6.762;2023-04-15T02:48:13;11.40;;;6.77;;
9007;SDS011;62813;51.424;6.762;2023-04-15T02:50:43;10.23;;;6.87;;
9007;SDS011;62813;51.424;6.762;2023-04-15T02:53:10;8.00;;;6.73;;
9007;SDS011;62813;51.424;6.762;2023-04-15T02:55:37;8.23;;;7.30;;
9007;SDS011;62813;51.424;6.762;2023-04-15T02:58:04;9.17;;;7.20;;
9007;SDS011;62813;51.424;6.762;2023-04-15T03:00:31;8.67;;;6.97;;
9007;SDS011;62813;51.424;6.762;2023-04-15T03:03:00;12.73;;;7.67;;
9007;SDS011;62813;51.424;6.762;2023-04-15T03:05:28;10.67;;;7.97;;
9007;SDS011;62813;51.424;6.762;2023-04-15T03:07:55;10.87;;;7.73;;
9007;SDS011;62813;51.424;6.762;2023-04-15T03:10:22;10.30;;;8.00;;
9007;SDS011;62813;51.424;6.762;2023-04-15T03:12:49;11.60;;;7.90;;
9007;SDS011;62813;51.424;6.762;2023-04-15T03:15:16;9.53;;;7.30;;
9007;SDS011;62813;51.424;6.762;2023-04-15T03:17:42;13.73;;;8.53;;
9007;SDS011;62813;51.424;6.762;2023-04-15T03:20:09;12.87;;;8.83;;
9007;SDS011;62813;51.424;6.762;2023-04-15T03:22:36;11.67;;;7.90;;
9007;SDS011;62813;51.424;6.762;2023-04-15T03:25:07;12.90;;;8.53;;
9007;SDS011;62813;51.424;6.762;2023-04-15T03:27:34;9.60;;;7.77;;
9007;SDS011;62813;51.424;6.762;2023-04-15T03:30:01;10.20;;;8.17;;
9007;SDS011;62813;51.424;6.762;2023-04-15T03:32:27;10.80;;;7.87;;
9007;SDS011;62813;51.424;6.762;2023-04-15T03:34:54;8.73;;;7.40;;
9007;SDS011;62813;51.424;6.762;2023-04-15T03:37:20;12.33;;;8.20;;
9007;SDS011;62813;51.424;6.762;2023-04-15T03:39:48;9.70;;;7.90;;
9007;SDS011;62813;51.424;6.762;2023-04-15T03:42:15;10.47;;;7.40;;
9007;SDS011;62813;51.424;6.762;2023-04-15T03:44:42;13.17;;;7.60;;
9007;SDS011;62813;51.424;6.762;2023-04-15T03:47:08;8.80;;;7.80;;
9007;SDS011;62813;51.424;6.762;2023-04-15T03:49:35;8.37;;;7.50;;
9007;SDS011;62813;51.424;6.762;2023-04-15T03:52:02;11.03;;;8.17;;
9007;SDS011;62813;51.424;6.762;2023-04-15T03:54:29;10.90;;;8.00;;
9007;SDS011;62813;51.424;6.762;2023-04-15T03:56:55;12.13;;;8.83;;
9007;SDS011;62813;51.424;6.762;2023-04-15T03:59:22;10.23;;;8.40;;
9007;SDS011;62813;51.424;6.762;2023-04-15T04:01:49;10.50;;;7.90;;
9007;SDS011;62813;51.424;6.762;2023-04-15T04:04:16;10.63;;;8.20;;
9007;SDS011;62813;51.424;6.762;2023-04-15T04:06:43;13.43;;;8.07;;
9007;SDS011;62813;51.424;6.762;2023-04-15T04:09:10;9.60;;;8.13;;
9007;SDS011;62813;51.424;6.762;2023-04-15T04:11:36;10.80;;;7.53;;
9007;SDS011;62813;51.424;6.762;2023-04-15T04:14:03;9.13;;;8.13;;
9007;SDS011;62813;51.424;6.762;2023-04-15T04:16:30;9.90;;;8.07;;
9007;SDS011;62813;51.424;6.762;2023-04-15T04:18:57;10.90;;;8.43;;
9007;SDS011;62813;51.424;6.762;2023-04-15T04:21:23;12.53;;;7.50;;
9007;SDS011;62813;51.424;6.762;2023-04-15T04:23:52;10.90;;;8.77;;
9007;SDS011;62813;51.424;6.762;2023-04-15T04:26:19;14.40;;;8.93;;
9007;SDS011;62813;51.424;6.762;2023-04-15T04:28:45;10.30;;;7.37;;
9007;SDS011;62813;51.424;6.762;2023-04-15T04:31:12;11.73;;;8.57;;
9007;SDS011;62813;51.424;6.762;2023-04-15T04:33:39;9.23;;;7.73;;
9007;SDS011;62813;51.424;6.762;2023-04-15T04:36:06;11.80;;;7.97;;
9007;SDS011;62813;51.424;6.762;2023-04-15T04:38:35;9.43;;;7.63;;
9007;SDS011;62813;51.424;6.762;2023-04-15T04:41:01;9.60;;;7.90;;
9007;SDS011;62813;51.424;6.762;2023-04-15T04:43:28;10.00;;;7.67;;
9007;SDS011;62813;51.424;6.762;2023-04-15T04:45:55;10.10;;;8.23;;
9007;SDS011;62813;51.424;6.762;2023-04-15T04:48:22;8.53;;;7.53;;
9007;SDS011;62813;51.424;6.762;2023-04-15T04:50:48;12.73;;;8.33;;
9007;SDS011;62813;51.424;6.762;2023-04-15T04:53:15;13.37;;;8.33;;
9007;SDS011;62813;51.424;6.762;2023-04-15T04:55:43;12.30;;;8.57;;
9007;SDS011;62813;51.424;6.762;2023-04-15T04:58:09;10.00;;;8.13;;
9007;SDS011;62813;51.424;6.762;2023-04-15T05:00:36;11.03;;;8.57;;
9007;SDS011;62813;51.424;6.762;2023-04-15T05:03:03;9.93;;;8.03;;
9007;SDS011;62813;51.424;6.762;2023-04-15T05:05:30;10.37;;;8.00;;
9007;SDS011;62813;51.424;6.762;2023-04-15T05:07:57;17.37;;;9.00;;
9007;SDS011;62813;51.424;6.762;2023-04-15T05:10:24;10.03;;;8.30;;
9007;SDS011;62813;51.424;6.762;2023-04-15T05:12:50;10.40;;;9.07;;
9007;SDS011;62813;51.424;6.762;2023-04-15T05:15:18;10.80;;;7.97;;
9007;SDS011;62813;51.424;6.762;2023-04-15T05:17:44;8.90;;;8.00;;
9007;SDS011;62813;51.424;6.762;2023-04-15T05:20:11;14.00;;;8.70;;
9007;SDS011;62813;51.424;6.762;2023-04-15T05:22:39;10.47;;;8.13;;
9007;SDS011;62813;51.424;6.762;2023-04-15T05:25:05;10.50;;;8.80;;
9007;SDS011;62813;51.424;6.762;2023-04-15T05:27:32;10.70;;;8.50;;
9007;SDS011;62813;51.424;6.762;2023-04-15T05:30:01;10.70;;;8.83;;
9007;SDS011;62813;51.424;6.762;2023-04-15T05:32:28;13.47;;;9.13;;
9007;SDS011;62813;51.424;6.762;2023-04-15T05:34:55;10.47;;;8.60;;
9007;SDS011;62813;51.424;6.762;2023-04-15T05:37:21;14.27;;;9.37;;
9007;SDS011;62813;51.424;6.762;2023-04-15T05:39:48;11.17;;;8.67;;
9007;SDS011;62813;51.424;6.762;2023-04-15T05:42:15;13.17;;;9.07;;
9007;SDS011;62813;51.424;6.762;2023-04-15T05:44:42;15.13;;;8.97;;
9007;SDS011;62813;51.424;6.762;2023-04-15T05:47:09;14.43;;;9.97;;
9007;SDS011;62813;51.424;6.762;2023-04-15T05:49:36;10.33;;;9.33;;
9007;SDS011;62813;51.424;6.762;2023-04-15T05:52:03;12.03;;;8.87;;
9007;SDS011;62813;51.424;6.762;2023-04-15T05:54:29;13.83;;;9.30;;
9007;SDS011;62813;51.424;6.762;2023-04-15T05:56:57;13.40;;;9.17;;
9007;SDS011;62813;51.424;6.762;2023-04-15T05:59:24;13.87;;;9.17;;
9007;SDS011;62813;51.424;6.762;2023-04-15T06:01:51;11.03;;;9.20;;
9007;SDS011;62813;51.424;6.762;2023-04-15T06:04:18;10.53;;;8.80;;
9007;SDS011;62813;51.424;6.762;2023-04-15T06:06:45;12.97;;;9.90;;
9007;SDS011;62813;51.424;6.762;2023-04-15T06:09:12;10.73;;;9.30;;
9007;SDS011;62813;51.424;6.762;2023-04-15T06:11:39;12.27;;;10.27;;
9007;SDS011;62813;51.424;6.762;2023-04-15T06:14:06;13.20;;;9.20;;
9007;SDS011;62813;51.424;6.762;2023-04-15T06:16:33;12.90;;;9.77;;
9007;SDS011;62813;51.424;6.762;2023-04-15T06:19:02;11.00;;;9.90;;
9007;SDS011;62813;51.424;6.762;2023-04-15T06:21:29;11.20;;;10.10;;
9007;SDS011;62813;51.424;6.762;2023-04-15T06:23:57;13.07;;;11.20;;
9007;SDS011;62813;51.424;6.762;2023-04-15T06:26:26;11.73;;;10.50;;
9007;SDS011;62813;51.424;6.762;2023-04-15T06:28:53;12.27;;;10.57;;
9007;SDS011;62813;51.424;6.762;2023-04-15T06:31:20;13.20;;;10.90;;
9007;SDS011;62813;51.424;6.762;2023-04-15T06:33:47;12.90;;;10.53;;
9007;SDS011;62813;51.424;6.762;2023-04-15T06:36:13;13.03;;;10.30;;
9007;SDS011;62813;51.424;6.762;2023-04-15T06:38:40;13.20;;;11.17;;
9007;SDS011;62813;51.424;6.762;2023-04-15T06:41:07;13.57;;;10.93;;
9007;SDS011;62813;51.424;6.762;2023-04-15T06:43:34;12.30;;;10.97;;
9007;SDS011;62813;51.424;6.762;2023-04-15T06:46:00;12.50;;;10.73;;
9007;SDS011;62813;51.424;6.762;2023-04-15T06:48:27;13.87;;;10.87;;
9007;SDS011;62813;51.424;6.762;2023-04-15T06:50:54;12.23;;;10.83;;
9007;SDS011;62813;51.424;6.762;2023-04-15T06:53:21;14.37;;;10.77;;
9007;SDS011;62813;51.424;6.762;2023-04-15T06:55:48;13.40;;;11.97;;
9007;SDS011;62813;51.424;6.762;2023-04-15T06:58:14;12.50;;;11.03;;
9007;SDS011;62813;51.424;6.762;2023-04-15T07:00:41;17.27;;;11.47;;
9007;SDS011;62813;51.424;6.762;2023-04-15T07:03:08;14.70;;;11.43;;
9007;SDS011;62813;51.424;6.762;2023-04-15T07:05:36;16.10;;;11.50;;
9007;SDS011;62813;51.424;6.762;2023-04-15T07:08:03;14.53;;;10.70;;
9007;SDS011;62813;51.424;6.762;2023-04-15T07:10:31;16.57;;;10.97;;
9007;SDS011;62813;51.424;6.762;2023-04-15T07:12:59;15.57;;;11.07;;
9007;SDS011;62813;51.424;6.762;2023-04-15T07:15:27;12.03;;;10.13;;
9007;SDS011;62813;51.424;6.762;2023-04-15T07:17:54;11.63;;;9.50;;
9007;SDS011;62813;51.424;6.762;2023-04-15T07:20:21;12.37;;;8.67;;
9007;SDS011;62813;51.424;6.762;2023-04-15T07:22:50;8.80;;;7.90;;
9007;SDS011;62813;51.424;6.762;2023-04-15T07:25:17;7.90;;;7.00;;
9007;SDS011;62813;51.424;6.762;2023-04-15T07:27:44;11.03;;;7.20;;
9007;SDS011;62813;51.424;6.762;2023-04-15T07:30:11;10.03;;;7.37;;
9007;SDS011;62813;51.424;6.762;2023-04-15T07:32:38;8.37;;;7.47;;
9007;SDS011;62813;51.424;6.762;2023-04-15T07:35:05;9.00;;;7.00;;
9007;SDS011;62813;51.424;6.762;2023-04-15T07:37:33;8.57;;;7.27;;
9007;SDS011;62813;51.424;6.762;2023-04-15T07:40:02;9.83;;;7.47;;
9007;SDS011;62813;51.424;6.762;2023-04-15T07:42:30;10.33;;;7.70;;
9007;SDS011;62813;51.424;6.762;2023-04-15T07:44:59;11.13;;;7.27;;
9007;SDS011;62813;51.424;6.762;2023-04-15T07:47:26;12.93;;;7.17;;
9007;SDS011;62813;51.424;6.762;2023-04-15T07:49:53;8.60;;;7.43;;
9007;SDS011;62813;51.424;6.762;2023-04-15T07:52:20;8.60;;;7.17;;
9007;SDS011;62813;51.424;6.762;2023-04-15T07:54:47;8.43;;;5.73;;
9007;SDS011;62813;51.424;6.762;2023-04-15T07:57:14;8.43;;;5.77;;
9007;SDS011;62813;51.424;6.762;2023-04-15T07:59:42;9.10;;;5.77;;
9007;SDS011;62813;51.424;6.762;2023-04-15T08:02:09;7.83;;;5.43;;
9007;SDS011;62813;51.424;6.762;2023-04-15T08:04:37;7.83;;;5.93;;
9007;SDS011;62813;51.424;6.762;2023-04-15T08:07:04;7.43;;;5.73;;
9007;SDS011;62813;51.424;6.762;2023-04-15T08:09:31;5.60;;;5.10;;
9007;SDS011;62813;51.424;6.762;2023-04-15T08:11:58;6.33;;;5.23;;
9007;SDS011;62813;51.424;6.762;2023-04-15T08:14:25;6.73;;;3.73;;
9007;SDS011;62813;51.424;6.762;2023-04-15T08:16:51;6.57;;;3.87;;
9007;SDS011;62813;51.424;6.762;2023-04-15T08:19:18;7.53;;;3.80;;
9007;SDS011;62813;51.424;6.762;2023-04-15T08:21:44;5.13;;;4.10;;
9007;SDS011;62813;51.424;6.762;2023-04-15T08:24:12;4.70;;;3.73;;
9007;SDS011;62813;51.424;6.762;2023-04-15T08:26:38;5.03;;;3.70;;
9007;SDS011;62813;51.424;6.762;2023-04-15T08:29:05;4.17;;;3.53;;
9007;SDS011;62813;51.424;6.762;2023-04-15T08:31:32;5.77;;;3.80;;
9007;SDS011;62813;51.424;6.762;2023-04-15T08:33:58;6.03;;;3.20;;
9007;SDS011;62813;51.424;6.762;2023-04-15T08:36:25;3.50;;;3.10;;
9007;SDS011;62813;51.424;6.762;2023-04-15T08:38:52;4.80;;;3.43;;
9007;SDS011;62813;51.424;6.762;2023-04-15T08:41:23;3.73;;;3.10;;
9007;SDS011;62813;51.424;6.762;2023-04-15T08:43:57;3.67;;;3.37;;
9007;SDS011;62813;51.424;6.762;2023-04-15T08:46:30;4.57;;;3.20;;
9007;SDS011;62813;51.424;6.762;2023-04-15T08:48:57;3.30;;;2.93;;
9007;SDS011;62813;51.424;6.762;2023-04-15T08:51:25;4.77;;;3.63;;
9007;SDS011;62813;51.424;6.762;2023-04-15T08:53:54;3.87;;;2.73;;
9007;SDS011;62813;51.424;6.762;2023-04-15T08:56:24;4.50;;;2.73;;
9007;SDS011;62813;51.424;6.762;2023-04-15T08:58:53;3.43;;;2.97;;
9007;SDS011;62813;51.424;6.762;2023-04-15T09:01:22;5.00;;;3.10;;
9007;SDS011;62813;51.424;6.762;2023-04-15T09:03:50;3.87;;;3.30;;
9007;SDS011;62813;51.424;6.762;2023-04-15T09:06:19;4.13;;;3.20;;
9007;SDS011;62813;51.424;6.762;2023-04-15T09:08:49;4.33;;;3.47;;
9007;SDS011;62813;51.424;6.762;2023-04-15T09:11:17;3.40;;;3.00;;
9007;SDS011;62813;51.424;6.762;2023-04-15T09:13:45;7.80;;;3.27;;
9007;SDS011;62813;51.424;6.762;2023-04-15T09:16:12;5.40;;;3.00;;
9007;SDS011;62813;51.424;6.762;2023-04-15T09:18:39;4.27;;;3.03;;
9007;SDS011;62813;51.424;6.762;2023-04-15T09:21:10;7.57;;;3.03;;
9007;SDS011;62813;51.424;6.762;2023-04-15T09:23:58;3.50;;;3.20;;
9007;SDS011;62813;51.424;6.762;2023-04-15T09:26:36;3.87;;;2.90;;
9007;SDS011;62813;51.424;6.762;2023-04-15T09:29:09;4.00;;;3.10;;
9007;SDS011;62813;51.424;6.762;2023-04-15T09:31:39;3.40;;;3.00;;
9007;SDS011;62813;51.424;6.762;2023-04-15T09:34:07;5.70;;;3.17;;
9007;SDS011;62813;51.424;6.762;2023-04-15T09:39:15;4.23;;;3.10;;
9007;SDS011;62813;51.424;6.762;2023-04-15T09:41:42;4.20;;;3.17;;
9007;SDS011;62813;51.424;6.762;2023-04-15T09:44:25;4.10;;;3.10;;
9007;SDS011;62813;51.424;6.762;2023-04-15T09:46:52;5.17;;;3.53;;
9007;SDS011;62813;51.424;6.762;2023-04-15T09:49:19;5.60;;;3.63;;
9007;SDS011;62813;51.424;6.762;2023-04-15T09:51:46;7.67;;;3.80;;
9007;SDS011;62813;51.424;6.762;2023-04-15T09:54:32;6.20;;;3.80;;
9007;SDS011;62813;51.424;6.762;2023-04-15T09:57:05;5.83;;;3.40;;
9007;SDS011;62813;51.424;6.762;2023-04-15T09:59:32;3.73;;;3.43;;
9007;SDS011;62813;51.424;6.762;2023-04-15T10:01:59;3.63;;;3.33;;
9007;SDS011;62813;51.424;6.762;2023-04-15T10:04:29;4.20;;;3.40;;
9007;SDS011;62813;51.424;6.762;2023-04-15T10:07:02;5.03;;;3.77;;
9007;SDS011;62813;51.424;6.762;2023-04-15T10:09:30;4.10;;;3.70;;
9007;SDS011;62813;51.424;6.762;2023-04-15T10:11:58;4.27;;;3.50;;
9007;SDS011;62813;51.424;6.762;2023-04-15T10:14:28;3.40;;;3.10;;
9007;SDS011;62813;51.424;6.762;2023-04-15T10:17:00;4.43;;;4.03;;
9007;SDS011;62813;51.424;6.762;2023-04-15T10:19:30;4.10;;;3.70;;
9007;SDS011;62813;51.424;6.762;2023-04-15T10:21:58;3.83;;;3.40;;
9007;SDS011;62813;51.424;6.762;2023-04-15T10:24:25;4.70;;;4.20;;
9007;SDS011;62813;51.424;6.762;2023-04-15T10:26:53;4.77;;;3.83;;
9007;SDS011;62813;51.424;6.762;2023-04-15T10:29:20;3.80;;;3.50;;
9007;SDS011;62813;51.424;6.762;2023-04-15T10:31:48;4.33;;;3.93;;
9007;SDS011;62813;51.424;6.762;2023-04-15T10:34:16;6.07;;;4.03;;
9007;SDS011;62813;51.424;6.762;2023-04-15T10:36:44;7.60;;;4.40;;
9007;SDS011;62813;51.424;6.762;2023-04-15T10:42:15;5.83;;;4.10;;
9007;SDS011;62813;51.424;6.762;2023-04-15T10:44:49;4.47;;;4.00;;
9007;SDS011;62813;51.424;6.762;2023-04-15T10:47:18;4.10;;;3.70;;
9007;SDS011;62813;51.424;6.762;2023-04-15T10:52:21;7.27;;;4.47;;
9007;SDS011;62813;51.424;6.762;2023-04-15T10:55:00;4.27;;;3.80;;
9007;SDS011;62813;51.424;6.762;2023-04-15T10:57:41;3.53;;;3.20;;
9007;SDS011;62813;51.424;6.762;2023-04-15T11:02:46;4.20;;;3.80;;
9007;SDS011;62813;51.424;6.762;2023-04-15T11:05:22;4.40;;;3.87;;
9007;SDS011;62813;51.424;6.762;2023-04-15T11:08:11;3.67;;;3.37;;
9007;SDS011;62813;51.424;6.762;2023-04-15T11:13:14;4.50;;;3.77;;
9007;SDS011;62813;51.424;6.762;2023-04-15T11:15:43;6.60;;;4.00;;
9007;SDS011;62813;51.424;6.762;2023-04-15T11:18:14;5.47;;;3.73;;
9007;SDS011;62813;51.424;6.762;2023-04-15T11:20:51;4.00;;;3.50;;
9007;SDS011;62813;51.424;6.762;2023-04-15T11:25:59;4.47;;;3.37;;
9007;SDS011;62813;51.424;6.762;2023-04-15T11:28:28;5.00;;;3.60;;
9007;SDS011;62813;51.424;6.762;2023-04-15T11:30:56;4.87;;;3.90;;
9007;SDS011;62813;51.424;6.762;2023-04-15T11:33:23;4.97;;;4.00;;
9007;SDS011;62813;51.424;6.762;2023-04-15T11:35:51;6.43;;;3.90;;
9007;SDS011;62813;51.424;6.762;2023-04-15T11:38:19;4.03;;;3.50;;
9007;SDS011;62813;51.424;6.762;2023-04-15T11:40:47;3.90;;;3.50;;
9007;SDS011;62813;51.424;6.762;2023-04-15T11:43:16;5.37;;;3.87;;
9007;SDS011;62813;51.424;6.762;2023-04-15T11:45:59;4.27;;;3.37;;
9007;SDS011;62813;51.424;6.762;2023-04-15T11:48:28;3.27;;;2.97;;
9007;SDS011;62813;51.424;6.762;2023-04-15T11:58:48;3.10;;;2.80;;
9007;SDS011;62813;51.424;6.762;2023-04-15T12:01:18;4.10;;;3.43;;
9007;SDS011;62813;51.424;6.762;2023-04-15T12:03:45;2.90;;;2.60;;
9007;SDS011;62813;51.424;6.762;2023-04-15T12:06:17;7.77;;;2.50;;
9007;SDS011;62813;51.424;6.762;2023-04-15T12:16:49;6.63;;;4.67;;
9007;SDS011;62813;51.424;6.762;2023-04-15T12:19:39;8.23;;;4.47;;
9007;SDS011;62813;51.424;6.762;2023-04-15T12:22:08;3.97;;;3.57;;
9007;SDS011;62813;51.424;6.762;2023-04-15T12:24:36;4.30;;;3.27;;
9007;SDS011;62813;51.424;6.762;2023-04-15T12:27:04;3.73;;;3.30;;
9007;SDS011;62813;51.424;6.762;2023-04-15T12:29:32;3.70;;;3.20;;
9007;SDS011;62813;51.424;6.762;2023-04-15T12:34:35;3.83;;;3.17;;
9007;SDS011;62813;51.424;6.762;2023-04-15T12:37:05;4.67;;;3.50;;
9007;SDS011;62813;51.424;6.762;2023-04-15T12:39:35;4.60;;;3.40;;
9007;SDS011;62813;51.424;6.762;2023-04-15T12:42:03;3.83;;;3.23;;
9007;SDS011;62813;51.424;6.762;2023-04-15T12:44:31;4.63;;;3.37;;
9007;SDS011;62813;51.424;6.762;2023-04-15T12:46:58;3.57;;;3.20;;
9007;SDS011;62813;51.424;6.762;2023-04-15T12:49:26;3.27;;;2.80;;
9007;SDS011;62813;51.424;6.762;2023-04-15T12:51:55;3.33;;;2.67;;
9007;SDS011;62813;51.424;6.762;2023-04-15T12:54:23;4.30;;;3.20;;
9007;SDS011;62813;51.424;6.762;2023-04-15T12:56:49;3.57;;;2.87;;
9007;SDS011;62813;51.424;6.762;2023-04-15T12:59:16;5.20;;;3.37;;
9007;SDS011;62813;51.424;6.762;2023-04-15T13:01:44;3.50;;;2.97;;
9007;SDS011;62813;51.424;6.762;2023-04-15T13:04:12;3.10;;;2.80;;
9007;SDS011;62813;51.424;6.762;2023-04-15T13:06:39;3.87;;;2.90;;
9007;SDS011;62813;51.424;6.762;2023-04-15T13:09:06;3.90;;;3.33;;
9007;SDS011;62813;51.424;6.762;2023-04-15T13:11:33;4.43;;;3.10;;
9007;SDS011;62813;51.424;6.762;2023-04-15T13:14:00;4.90;;;3.60;;
9007;SDS011;62813;51.424;6.762;2023-04-15T13:16:29;5.30;;;3.30;;
9007;SDS011;62813;51.424;6.762;2023-04-15T13:19:00;4.13;;;2.70;;
9007;SDS011;62813;51.424;6.762;2023-04-15T13:21:29;3.83;;;2.80;;
9007;SDS011;62813;51.424;6.762;2023-04-15T13:24:01;4.03;;;2.77;;
9007;SDS011;62813;51.424;6.762;2023-04-15T13:26:30;3.93;;;2.60;;
9007;SDS011;62813;51.424;6.762;2023-04-15T13:28:58;5.53;;;3.50;;
9007;SDS011;62813;51.424;6.762;2023-04-15T13:31:25;4.23;;;2.80;;
9007;SDS011;62813;51.424;6.762;2023-04-15T13:33:52;5.57;;;3.40;;
9007;SDS011;62813;51.424;6.762;2023-04-15T13:36:19;4.93;;;3.33;;
9007;SDS011;62813;51.424;6.762;2023-04-15T13:38:46;3.90;;;3.00;;
9007;SDS011;62813;51.424;6.762;2023-04-15T13:41:16;3.70;;;2.87;;
9007;SDS011;62813;51.424;6.762;2023-04-15T13:43:43;2.80;;;2.50;;
9007;SDS011;62813;51.424;6.762;2023-04-15T13:46:09;10.27;;;2.77;;
9007;SDS011;62813;51.424;6.762;2023-04-15T13:48:36;3.37;;;2.53;;
9007;SDS011;62813;51.424;6.762;2023-04-15T13:51:03;3.23;;;2.70;;
9007;SDS011;62813;51.424;6.762;2023-04-15T13:53:29;4.33;;;2.13;;
9007;SDS011;62813;51.424;6.762;2023-04-15T13:56:05;5.10;;;2.60;;
9007;SDS011;62813;51.424;6.762;2023-04-15T13:58:33;4.87;;;2.60;;
9007;SDS011;62813;51.424;6.762;2023-04-15T14:00:59;4.40;;;2.30;;
9007;SDS011;62813;51.424;6.762;2023-04-15T14:03:29;6.50;;;2.97;;
9007;SDS011;62813;51.424;6.762;2023-04-15T14:05:56;4.70;;;2.83;;
9007;SDS011;62813;51.424;6.762;2023-04-15T14:08:24;5.33;;;2.70;;
9007;SDS011;62813;51.424;6.762;2023-04-15T14:10:51;5.60;;;2.97;;
9007;SDS011;62813;51.424;6.762;2023-04-15T14:13:17;4.40;;;2.30;;
9007;SDS011;62813;51.424;6.762;2023-04-15T14:15:45;3.63;;;2.40;;
9007;SDS011;62813;51.424;6.762;2023-04-15T14:18:12;2.70;;;2.17;;
9007;SDS011;62813;51.424;6.762;2023-04-15T14:20:38;3.63;;;2.70;;
9007;SDS011;62813;51.424;6.762;2023-04-15T14:23:06;4.67;;;2.37;;
9007;SDS011;62813;51.424;6.762;2023-04-15T14:25:32;5.27;;;2.70;;
9007;SDS011;62813;51.424;6.762;2023-04-15T14:28:00;5.97;;;3.17;;
9007;SDS011;62813;51.424;6.762;2023-04-15T14:30:28;3.90;;;2.60;;
9007;SDS011;62813;51.424;6.762;2023-04-15T14:32:54;3.03;;;2.50;;
9007;SDS011;62813;51.424;6.762;2023-04-15T14:35:22;3.23;;;2.50;;
9007;SDS011;62813;51.424;6.762;2023-04-15T14:37:52;4.73;;;2.10;;
9007;SDS011;62813;51.424;6.762;2023-04-15T14:40:19;4.83;;;2.73;;
9007;SDS011;62813;51.424;6.762;2023-04-15T14:42:46;6.70;;;2.97;;
9007;SDS011;62813;51.424;6.762;2023-04-15T14:45:12;5.03;;;3.33;;
9007;SDS011;62813;51.424;6.762;2023-04-15T14:47:39;7.67;;;3.77;;
9007;SDS011;62813;51.424;6.762;2023-04-15T14:50:06;8.23;;;5.00;;
9007;SDS011;62813;51.424;6.762;2023-04-15T14:52:33;14.57;;;7.53;;
9007;SDS011;62813;51.424;6.762;2023-04-15T14:55:10;9.23;;;3.30;;
9007;SDS011;62813;51.424;6.762;2023-04-15T14:57:38;7.80;;;3.20;;
9007;SDS011;62813;51.424;6.762;2023-04-15T15:00:06;9.27;;;4.30;;
9007;SDS011;62813;51.424;6.762;2023-04-15T15:02:35;6.50;;;3.10;;
9007;SDS011;62813;51.424;6.762;2023-04-15T15:05:05;5.57;;;2.37;;
9007;SDS011;62813;51.424;6.762;2023-04-15T15:07:33;3.73;;;1.90;;
9007;SDS011;62813;51.424;6.762;2023-04-15T15:10:01;2.10;;;1.70;;
9007;SDS011;62813;51.424;6.762;2023-04-15T15:12:28;2.73;;;2.10;;
9007;SDS011;62813;51.424;6.762;2023-04-15T15:14:54;3.77;;;2.00;;
9007;SDS011;62813;51.424;6.762;2023-04-15T15:17:21;3.20;;;2.30;;
9007;SDS011;62813;51.424;6.762;2023-04-15T15:19:48;7.27;;;2.70;;
9007;SDS011;62813;51.424;6.762;2023-04-15T15:22:14;2.23;;;2.00;;
9007;SDS011;62813;51.424;6.762;2023-04-15T15:24:41;2.80;;;2.33;;
9007;SDS011;62813;51.424;6.762;2023-04-15T15:27:08;3.70;;;2.30;;
9007;SDS011;62813;51.424;6.762;2023-04-15T15:29:35;3.37;;;2.17;;
9007;SDS011;62813;51.424;6.762;2023-04-15T15:32:03;3.30;;;2.33;;
9007;SDS011;62813;51.424;6.762;2023-04-15T15:34:29;4.80;;;2.10;;